createdAt,value
2023-03-13T00:01:31.774Z,19.17
2023-03-13T00:04:04.976Z,19.52
2023-03-13T00:06:34.734Z,15.05
2023-03-13T00:09:02.267Z,17.02
2023-03-13T00:11:29.534Z,17.95
2023-03-13T00:13:59.556Z,13.23
2023-03-13T00:16:27.972Z,14.77
2023-03-13T00:18:56.598Z,19.45
2023-03-13T00:21:25.973Z,17.98
2023-03-13T00:23:53.244Z,20.00
2023-03-13T00:26:22.601Z,21.38
2023-03-13T00:28:51.053Z,17.83
2023-03-13T00:31:29.304Z,19.33
2023-03-13T00:34:00.661Z,15.15
2023-03-13T00:36:32.750Z,24.30
2023-03-13T00:38:59.885Z,20.08
2023-03-13T00:41:38.293Z,22.52
2023-03-13T00:44:23.678Z,16.98
2023-03-13T00:46:50.250Z,17.05
2023-03-13T00:49:16.791Z,18.80
2023-03-13T00:51:43.370Z,16.88
2023-03-13T00:54:56.761Z,16.45
2023-03-13T00:57:23.421Z,18.27
2023-03-13T00:59:50.014Z,18.65
2023-03-13T01:02:16.741Z,13.82
2023-03-13T01:04:54.296Z,13.30
2023-03-13T01:07:20.844Z,21.05
2023-03-13T01:09:47.332Z,21.08
2023-03-13T01:12:13.912Z,15.25
2023-03-13T01:14:56.004Z,16.42
2023-03-13T01:17:22.584Z,16.35
2023-03-13T01:19:50.004Z,17.27
2023-03-13T01:22:16.578Z,11.40
2023-03-13T01:25:17.939Z,13.40
2023-03-13T01:27:44.619Z,19.25
2023-03-13T01:30:12.056Z,17.25
2023-03-13T01:32:38.743Z,12.38
2023-03-13T01:35:22.694Z,12.88
2023-03-13T01:37:49.248Z,12.65
2023-03-13T01:40:16.066Z,16.30
2023-03-13T01:42:59.751Z,13.85
2023-03-13T01:48:12.981Z,15.38
2023-03-13T01:50:39.457Z,18.40
2023-03-13T01:53:06.164Z,10.05
2023-03-13T01:55:34.526Z,13.07
2023-03-13T01:58:01.272Z,15.07
2023-03-13T02:00:32.856Z,13.75
2023-03-13T02:03:04.183Z,12.80
2023-03-13T02:05:38.901Z,11.82
2023-03-13T02:08:13.910Z,10.50
2023-03-13T02:10:49.942Z,12.02
2023-03-13T02:13:31.171Z,13.57
2023-03-13T02:15:59.157Z,9.15
2023-03-13T02:18:26.571Z,12.32
2023-03-13T02:21:01.534Z,11.60
2023-03-13T02:23:35.901Z,10.60
2023-03-13T02:26:03.362Z,14.35
2023-03-13T02:28:39.524Z,14.50
2023-03-13T02:31:07.137Z,10.45
2023-03-13T02:33:47.336Z,14.88
2023-03-13T02:36:16.265Z,14.85
2023-03-13T02:38:51.758Z,14.30
2023-03-13T02:41:20.532Z,14.77
2023-03-13T02:44:06.058Z,19.73
2023-03-13T02:46:45.222Z,12.13
2023-03-13T02:49:30.326Z,11.77
2023-03-13T02:52:09.415Z,15.13
2023-03-13T02:54:52.948Z,16.65
2023-03-13T02:57:19.488Z,13.13
2023-03-13T02:59:46.040Z,14.30
2023-03-13T03:02:12.621Z,14.05
2023-03-13T03:04:39.406Z,14.48
2023-03-13T03:07:05.891Z,15.60
2023-03-13T03:09:32.743Z,15.25
2023-03-13T03:11:59.286Z,17.38
2023-03-13T03:14:38.856Z,15.55
2023-03-13T03:17:05.438Z,18.83
2023-03-13T03:19:32.040Z,14.55
2023-03-13T03:21:58.547Z,13.57
2023-03-13T03:24:34.397Z,14.23
2023-03-13T03:27:00.957Z,16.65
2023-03-13T03:29:30.593Z,17.90
2023-03-13T03:31:57.287Z,17.60
2023-03-13T03:34:33.258Z,15.73
2023-03-13T03:36:59.996Z,13.05
2023-03-13T03:39:26.669Z,16.75
2023-03-13T03:41:53.260Z,20.13
2023-03-13T03:44:20.348Z,17.20
2023-03-13T03:46:46.924Z,16.60
2023-03-13T03:49:13.571Z,16.52
2023-03-13T03:51:40.192Z,15.48
2023-03-13T03:54:32.814Z,17.63
2023-03-13T03:56:59.354Z,16.38
2023-03-13T03:59:26.146Z,13.98
2023-03-13T04:01:52.928Z,14.27
2023-03-13T04:04:19.812Z,14.13
2023-03-13T04:06:46.365Z,14.63
2023-03-13T04:09:13.030Z,11.38
2023-03-13T04:11:39.624Z,13.45
2023-03-13T04:14:06.460Z,16.30
2023-03-13T04:16:33.092Z,11.98
2023-03-13T04:18:59.679Z,12.82
2023-03-13T04:21:26.193Z,11.50
2023-03-13T04:23:52.849Z,12.00
2023-03-13T04:26:19.460Z,10.82
2023-03-13T04:28:46.130Z,11.82
2023-03-13T04:31:12.951Z,8.80
2023-03-13T04:33:39.657Z,13.25
2023-03-13T04:36:06.822Z,12.10
2023-03-13T04:38:33.457Z,12.93
2023-03-13T04:41:00.104Z,14.65
2023-03-13T04:43:26.950Z,10.75
2023-03-13T04:45:56.429Z,13.18
2023-03-13T04:48:23.157Z,13.38
2023-03-13T04:50:49.951Z,14.57
2023-03-13T04:53:16.515Z,9.68
2023-03-13T04:55:43.495Z,13.57
2023-03-13T04:58:10.080Z,15.88
2023-03-13T05:00:36.719Z,11.57
2023-03-13T05:03:03.300Z,10.20
2023-03-13T05:05:30.036Z,7.80
2023-03-13T05:07:56.653Z,11.75
2023-03-13T05:10:23.209Z,10.05
2023-03-13T05:12:49.705Z,10.43
2023-03-13T05:15:16.405Z,10.43
2023-03-13T05:17:43.051Z,9.68
2023-03-13T05:20:11.364Z,11.45
2023-03-13T05:22:38.728Z,12.35
2023-03-13T05:25:05.972Z,9.80
2023-03-13T05:27:32.798Z,8.98
2023-03-13T05:29:59.313Z,8.95
2023-03-13T05:32:26.038Z,12.18
2023-03-13T05:34:52.688Z,11.90
2023-03-13T05:37:19.355Z,9.05
2023-03-13T05:39:45.985Z,8.95
2023-03-13T05:42:12.536Z,10.10
2023-03-13T05:44:39.356Z,12.27
2023-03-13T05:47:06.059Z,8.38
2023-03-13T05:49:32.825Z,10.70
2023-03-13T05:51:59.366Z,8.50
2023-03-13T05:54:27.509Z,9.43
2023-03-13T05:56:54.121Z,8.52
2023-03-13T05:59:20.702Z,10.90
2023-03-13T06:01:47.204Z,12.38
2023-03-13T06:04:14.899Z,9.18
2023-03-13T06:06:41.544Z,8.30
2023-03-13T06:09:08.062Z,11.45
2023-03-13T06:11:34.757Z,8.45
2023-03-13T06:14:01.499Z,11.95
2023-03-13T06:16:28.086Z,9.95
2023-03-13T06:18:54.684Z,12.63
2023-03-13T06:21:21.217Z,7.07
2023-03-13T06:23:47.814Z,10.07
2023-03-13T06:26:14.412Z,14.48
2023-03-13T06:28:41.216Z,8.55
2023-03-13T06:31:08.374Z,10.05
2023-03-13T06:33:35.268Z,9.05
2023-03-13T06:36:02.421Z,9.05
2023-03-13T06:38:29.927Z,10.50
2023-03-13T06:40:56.767Z,7.65
2023-03-13T06:43:25.724Z,12.32
2023-03-13T06:45:52.387Z,8.68
2023-03-13T06:48:19.242Z,11.00
2023-03-13T06:50:46.130Z,8.80
2023-03-13T06:53:18.249Z,9.02
2023-03-13T06:55:45.737Z,10.27
2023-03-13T06:58:25.306Z,8.60
2023-03-13T07:00:57.551Z,9.15
2023-03-13T07:03:24.441Z,11.23
2023-03-13T07:05:57.067Z,9.25
2023-03-13T07:08:25.739Z,12.05
2023-03-13T07:10:53.190Z,9.82
2023-03-13T07:13:22.330Z,9.85
2023-03-13T07:15:49.027Z,8.45
2023-03-13T07:18:16.055Z,11.63
2023-03-13T07:20:42.712Z,7.30
2023-03-13T07:23:09.390Z,9.18
2023-03-13T07:25:35.971Z,8.13
2023-03-13T07:28:02.568Z,9.15
2023-03-13T07:30:29.251Z,8.85
2023-03-13T07:32:55.966Z,10.18
2023-03-13T07:35:23.693Z,11.88
2023-03-13T07:37:50.259Z,10.80
2023-03-13T07:40:17.019Z,9.40
2023-03-13T07:42:44.171Z,7.47
2023-03-13T07:45:12.137Z,11.52
2023-03-13T07:47:38.752Z,11.07
2023-03-13T07:50:05.995Z,10.77
2023-03-13T07:52:32.849Z,10.32
2023-03-13T07:54:59.667Z,17.95
2023-03-13T07:57:26.288Z,10.25
2023-03-13T07:59:52.953Z,13.70
2023-03-13T08:02:19.506Z,11.68
2023-03-13T08:04:47.271Z,11.82
2023-03-13T08:07:13.831Z,9.48
2023-03-13T08:09:41.452Z,11.63
2023-03-13T08:12:08.966Z,10.60
2023-03-13T08:14:35.602Z,7.47
2023-03-13T08:17:02.339Z,8.13
2023-03-13T08:19:29.123Z,8.45
2023-03-13T08:21:55.763Z,10.43
2023-03-13T08:24:22.402Z,8.80
2023-03-13T08:26:49.010Z,8.80
2023-03-13T08:29:15.635Z,8.00
2023-03-13T08:31:48.106Z,9.40
2023-03-13T08:34:16.197Z,9.07
2023-03-13T08:36:43.610Z,9.80
2023-03-13T08:39:21.361Z,11.50
2023-03-13T08:41:48.727Z,10.48
2023-03-13T08:44:18.445Z,9.30
2023-03-13T08:46:45.475Z,8.38
2023-03-13T08:49:13.505Z,11.75
2023-03-13T08:51:40.848Z,9.57
2023-03-13T08:54:08.076Z,8.13
2023-03-13T08:56:35.159Z,11.50
2023-03-13T08:59:02.813Z,8.00
2023-03-13T09:01:32.551Z,9.10
2023-03-13T09:04:03.414Z,7.57
2023-03-13T09:06:30.895Z,7.97
2023-03-13T09:08:58.299Z,9.30
2023-03-13T09:11:25.989Z,7.63
2023-03-13T09:13:53.392Z,7.75
2023-03-13T09:16:22.632Z,11.15
2023-03-13T09:18:50.559Z,4.45
2023-03-13T09:21:19.976Z,6.03
2023-03-13T09:23:48.175Z,11.93
2023-03-13T09:26:16.414Z,10.05
2023-03-13T09:28:43.595Z,8.55
2023-03-13T09:31:13.319Z,8.65
2023-03-13T09:33:40.931Z,8.48
2023-03-13T09:36:08.421Z,8.02
2023-03-13T09:38:35.614Z,6.68
2023-03-13T09:41:14.225Z,6.68
2023-03-13T09:44:00.668Z,6.53
2023-03-13T09:46:39.946Z,7.97
2023-03-13T09:49:54.875Z,5.70
2023-03-13T09:52:27.436Z,6.20
2023-03-13T09:55:17.358Z,7.03
2023-03-13T09:57:56.008Z,6.43
2023-03-13T10:00:27.482Z,6.65
2023-03-13T10:03:03.623Z,5.45
2023-03-13T10:05:32.046Z,8.20
2023-03-13T10:08:10.996Z,6.43
2023-03-13T10:10:47.295Z,3.85
2023-03-13T10:13:27.055Z,5.50
2023-03-13T10:15:58.120Z,3.97
2023-03-13T10:18:25.054Z,4.47
2023-03-13T10:20:56.892Z,5.20
2023-03-13T10:23:39.675Z,6.03
2023-03-13T10:26:10.461Z,6.70
2023-03-13T10:31:13.901Z,4.10
2023-03-13T10:33:43.108Z,5.18
2023-03-13T10:36:12.454Z,5.30
2023-03-13T10:38:50.960Z,6.07
2023-03-13T10:41:28.369Z,5.03
2023-03-13T10:44:01.007Z,3.85
2023-03-13T10:46:31.229Z,5.45
2023-03-13T10:49:01.424Z,3.60
2023-03-13T10:51:37.953Z,6.55
2023-03-13T10:54:37.776Z,5.22
2023-03-13T10:57:27.667Z,7.40
2023-03-13T10:59:54.946Z,7.13
2023-03-13T11:02:27.655Z,9.98
2023-03-13T11:04:56.408Z,5.55
2023-03-13T11:07:49.764Z,5.15
2023-03-13T11:10:30.126Z,7.03
2023-03-13T11:12:58.631Z,5.28
2023-03-13T11:15:35.550Z,6.00
2023-03-13T11:18:14.593Z,7.18
2023-03-13T11:20:45.357Z,4.25
2023-03-13T11:28:55.717Z,5.20
2023-03-13T11:31:31.329Z,4.97
2023-03-13T11:34:30.366Z,4.70
2023-03-13T11:37:14.815Z,6.30
2023-03-13T11:39:56.804Z,8.60
2023-03-13T11:42:42.043Z,3.47
2023-03-13T11:45:16.556Z,4.03
2023-03-13T11:48:05.086Z,4.22
2023-03-13T11:50:51.934Z,4.88
2023-03-13T11:53:35.336Z,5.95
2023-03-13T11:56:10.457Z,3.88
2023-03-13T11:58:55.367Z,5.72
2023-03-13T12:01:27.315Z,4.32
2023-03-13T12:04:05.872Z,6.50
2023-03-13T12:06:38.273Z,5.40
2023-03-13T12:09:28.206Z,4.93
2023-03-13T12:12:31.472Z,3.85
2023-03-13T12:15:18.962Z,5.15
2023-03-13T12:17:51.674Z,3.97
2023-03-13T12:20:53.582Z,6.45
2023-03-13T12:26:13.082Z,4.95
2023-03-13T12:29:13.503Z,7.63
2023-03-13T12:31:57.439Z,6.15
2023-03-13T12:34:50.158Z,7.53
2023-03-13T12:37:48.725Z,8.00
2023-03-13T12:40:28.626Z,7.32
2023-03-13T12:43:11.217Z,7.72
2023-03-13T12:45:54.099Z,8.10
2023-03-13T12:48:38.141Z,5.60
2023-03-13T12:51:49.760Z,10.45
2023-03-13T12:54:41.774Z,6.78
2023-03-13T12:57:36.742Z,9.20
2023-03-13T13:00:11.662Z,7.53
2023-03-13T13:02:38.609Z,7.82
2023-03-13T13:05:06.210Z,10.45
2023-03-13T13:07:35.484Z,12.02
2023-03-13T13:10:11.170Z,7.95
2023-03-13T13:12:39.859Z,10.00
2023-03-13T13:15:26.377Z,6.45
2023-03-13T13:17:58.928Z,8.15
2023-03-13T13:20:25.353Z,9.73
2023-03-13T13:22:52.855Z,7.30
2023-03-13T13:25:27.917Z,8.60
2023-03-13T13:27:55.167Z,10.13
2023-03-13T13:30:21.916Z,7.75
2023-03-13T13:32:54.295Z,7.15
2023-03-13T13:35:28.609Z,7.13
2023-03-13T13:38:20.152Z,7.40
2023-03-13T13:41:23.010Z,10.00
2023-03-13T13:44:29.058Z,11.35
2023-03-13T13:46:57.205Z,7.20
2023-03-13T13:49:31.765Z,11.63
2023-03-13T13:52:04.281Z,10.40
2023-03-13T13:54:45.475Z,9.32
2023-03-13T13:57:24.013Z,12.05
2023-03-13T13:59:54.607Z,12.48
2023-03-13T14:02:30.728Z,13.32
2023-03-13T14:05:01.163Z,12.27
2023-03-13T14:07:27.692Z,9.88
2023-03-13T14:10:13.091Z,11.18
2023-03-13T14:12:39.758Z,10.73
2023-03-13T14:15:21.659Z,10.35
2023-03-13T14:17:52.432Z,8.77
2023-03-13T14:20:24.710Z,8.75
2023-03-13T14:22:53.699Z,14.35
2023-03-13T14:25:24.154Z,11.05
2023-03-13T14:27:52.083Z,10.43
2023-03-13T14:30:20.829Z,7.40
2023-03-13T14:32:48.232Z,11.43
2023-03-13T14:35:19.324Z,11.63
2023-03-13T14:37:48.490Z,11.10
2023-03-13T14:40:18.071Z,12.52
2023-03-13T14:42:53.397Z,13.65
2023-03-13T14:45:32.550Z,11.60
2023-03-13T14:48:05.181Z,14.10
2023-03-13T14:50:32.015Z,10.27
2023-03-13T14:53:11.346Z,12.40
2023-03-13T14:55:41.151Z,12.32
2023-03-13T14:58:19.913Z,11.43
2023-03-13T15:00:48.928Z,11.40
2023-03-13T15:03:21.954Z,11.40
2023-03-13T15:06:11.817Z,11.40
2023-03-13T15:08:41.423Z,13.85
2023-03-13T15:11:45.617Z,14.95
2023-03-13T15:14:35.881Z,11.20
2023-03-13T15:17:04.646Z,12.02
2023-03-13T15:19:32.466Z,10.20
2023-03-13T15:21:59.017Z,13.82
2023-03-13T15:24:25.760Z,10.43
2023-03-13T15:26:52.375Z,12.40
2023-03-13T15:29:20.261Z,14.50
2023-03-13T15:31:46.931Z,13.65
2023-03-13T15:34:16.337Z,12.82
2023-03-13T15:36:43.034Z,11.80
2023-03-13T15:39:17.038Z,8.90
2023-03-13T15:41:43.549Z,11.20
2023-03-13T15:44:10.338Z,13.15
2023-03-13T15:46:37.020Z,12.43
2023-03-13T15:49:04.101Z,13.43
2023-03-13T15:51:30.848Z,15.73
2023-03-13T15:53:59.936Z,13.05
2023-03-13T15:56:34.029Z,14.93
2023-03-13T15:59:01.090Z,12.88
2023-03-13T16:01:28.569Z,14.18
2023-03-13T16:03:55.415Z,15.40
2023-03-13T16:06:30.914Z,14.80
2023-03-13T16:09:00.204Z,9.27
2023-03-13T16:11:27.278Z,11.75
2023-03-13T16:13:54.161Z,16.02
2023-03-13T16:16:25.688Z,15.88
2023-03-13T16:18:53.296Z,15.02
2023-03-13T16:21:25.992Z,11.13
2023-03-13T16:23:53.163Z,16.75
2023-03-13T16:26:25.513Z,11.43
2023-03-13T16:28:52.635Z,15.13
2023-03-13T16:31:31.566Z,11.05
2023-03-13T16:33:59.805Z,14.77
2023-03-13T16:36:29.666Z,13.55
2023-03-13T16:38:56.274Z,19.48
2023-03-13T16:41:27.719Z,14.77
2023-03-13T16:43:55.017Z,14.60
2023-03-13T16:46:32.699Z,15.65
2023-03-13T16:48:59.873Z,13.77
2023-03-13T16:51:28.560Z,16.25
2023-03-13T16:53:57.433Z,14.05
2023-03-13T16:56:29.728Z,13.23
2023-03-13T16:58:57.636Z,12.73
2023-03-13T17:01:27.183Z,16.70
2023-03-13T17:03:53.915Z,15.25
2023-03-13T17:06:31.939Z,19.40
2023-03-13T17:08:59.045Z,13.57
2023-03-13T17:11:25.623Z,13.68
2023-03-13T17:13:53.321Z,16.77
2023-03-13T17:16:26.086Z,17.23
2023-03-13T17:18:53.753Z,15.55
2023-03-13T17:21:26.092Z,13.20
2023-03-13T17:23:53.512Z,17.00
2023-03-13T17:26:38.181Z,20.00
2023-03-13T17:29:07.317Z,14.13
2023-03-13T17:31:38.467Z,15.93
2023-03-13T17:34:09.764Z,24.08
2023-03-13T17:36:36.659Z,16.27
2023-03-13T17:39:06.054Z,17.65
2023-03-13T17:41:35.086Z,21.30
2023-03-13T17:44:03.697Z,17.65
2023-03-13T17:46:34.109Z,23.17
2023-03-13T17:49:01.416Z,18.52
2023-03-13T17:51:31.148Z,19.30
2023-03-13T17:53:59.235Z,16.23
2023-03-13T17:56:29.582Z,19.65
2023-03-13T17:58:59.137Z,22.08
2023-03-13T18:01:31.542Z,13.40
2023-03-13T18:04:02.939Z,12.20
2023-03-13T18:06:32.495Z,18.10
2023-03-13T18:09:02.762Z,17.67
2023-03-13T18:11:29.426Z,19.60
2023-03-13T18:13:59.446Z,31.73
2023-03-13T18:16:30.684Z,17.73
2023-03-13T18:18:57.376Z,15.80
2023-03-13T18:21:24.594Z,18.38
2023-03-13T18:24:06.722Z,11.80
2023-03-13T18:26:37.938Z,22.23
2023-03-13T18:29:13.827Z,21.52
2023-03-13T18:31:42.725Z,18.70
2023-03-13T18:34:15.214Z,20.17
2023-03-13T18:36:42.329Z,20.27
2023-03-13T18:39:14.361Z,16.08
2023-03-13T18:41:40.887Z,21.67
2023-03-13T18:44:35.416Z,22.60
2023-03-13T18:47:09.931Z,17.77
2023-03-13T18:49:36.399Z,20.38
2023-03-13T18:52:03.009Z,15.10
2023-03-13T18:54:30.000Z,18.83
2023-03-13T18:56:56.566Z,19.58
2023-03-13T18:59:23.143Z,19.35
2023-03-13T19:01:50.066Z,18.17
2023-03-13T19:04:19.618Z,21.17
2023-03-13T19:06:47.019Z,18.80
2023-03-13T19:09:41.224Z,23.90
2023-03-13T19:12:02.883Z,22.73
2023-03-13T19:14:32.856Z,14.32
2023-03-13T19:16:59.445Z,14.05
2023-03-13T19:19:26.509Z,17.38
2023-03-13T19:21:56.436Z,18.98
2023-03-13T19:24:30.350Z,17.63
2023-03-13T19:26:59.791Z,23.90
2023-03-13T19:29:27.948Z,18.63
2023-03-13T19:31:54.875Z,13.65
2023-03-13T19:35:12.754Z,21.17
2023-03-13T19:37:40.448Z,17.40
2023-03-13T19:40:28.592Z,21.58
2023-03-13T19:42:55.165Z,16.98
2023-03-13T19:45:39.268Z,22.60
2023-03-13T19:48:05.960Z,24.67
2023-03-13T19:50:32.925Z,18.90
2023-03-13T19:52:59.440Z,17.23
2023-03-13T19:55:30.294Z,22.77
2023-03-13T19:57:56.876Z,19.95
2023-03-13T20:00:27.997Z,15.00
2023-03-13T20:02:57.502Z,24.00
2023-03-13T20:05:34.904Z,20.02
2023-03-13T20:08:01.363Z,16.60
2023-03-13T20:10:27.901Z,19.90
2023-03-13T20:12:54.458Z,18.50
2023-03-13T20:15:29.199Z,22.60
2023-03-13T20:17:55.800Z,22.40
2023-03-13T20:20:22.299Z,16.10
2023-03-13T20:22:48.858Z,18.77
2023-03-13T20:25:17.792Z,21.27
2023-03-13T20:27:44.342Z,21.52
2023-03-13T20:30:11.544Z,18.38
2023-03-13T20:32:49.105Z,26.80
2023-03-13T20:35:30.847Z,21.35
2023-03-13T20:37:59.824Z,16.15
2023-03-13T20:40:26.412Z,22.10
2023-03-13T20:42:53.022Z,13.88
2023-03-13T20:45:44.857Z,19.60
2023-03-13T20:48:11.358Z,16.02
2023-03-13T20:50:37.884Z,20.80
2023-03-13T20:53:04.455Z,19.17
2023-03-13T20:56:07.118Z,15.95
2023-03-13T20:58:34.972Z,19.27
2023-03-13T21:01:04.066Z,22.40
2023-03-13T21:03:53.952Z,21.20
2023-03-13T21:06:20.560Z,18.60
2023-03-13T21:08:47.928Z,25.95
2023-03-13T21:11:19.977Z,25.20
2023-03-13T21:13:50.457Z,25.08
2023-03-13T21:16:19.000Z,22.27
2023-03-13T21:18:46.090Z,21.65
2023-03-13T21:21:17.075Z,16.70
2023-03-13T21:23:45.397Z,15.80
2023-03-13T21:26:12.771Z,21.80
2023-03-13T21:28:40.223Z,19.50
2023-03-13T21:31:13.106Z,24.50
2023-03-13T21:33:48.636Z,17.35
2023-03-13T21:36:17.451Z,14.90
2023-03-13T21:38:44.838Z,17.42
2023-03-13T21:41:14.043Z,14.68
2023-03-13T21:43:46.383Z,19.67
2023-03-13T21:46:15.754Z,18.08
2023-03-13T21:51:11.770Z,17.27
2023-03-13T21:53:44.618Z,17.95
2023-03-13T21:56:15.850Z,14.50
2023-03-13T21:58:43.793Z,16.73
2023-03-13T22:01:10.672Z,17.80
2023-03-13T22:03:49.946Z,14.38
2023-03-13T22:06:22.586Z,15.05
2023-03-13T22:08:49.844Z,19.90
2023-03-13T22:11:16.647Z,12.43
2023-03-13T22:13:49.803Z,16.02
2023-03-13T22:16:16.252Z,15.57
2023-03-13T22:18:43.911Z,18.30
2023-03-13T22:21:10.505Z,12.32
2023-03-13T22:23:46.945Z,14.40
2023-03-13T22:26:14.234Z,13.50
2023-03-13T22:28:41.159Z,14.55
2023-03-13T22:31:08.311Z,22.30
2023-03-13T22:33:36.170Z,16.83
2023-03-13T22:36:05.365Z,18.83
2023-03-13T22:38:36.197Z,16.95
2023-03-13T22:41:04.837Z,14.80
2023-03-13T22:43:32.480Z,23.48
2023-03-13T22:45:59.657Z,19.13
2023-03-13T22:48:27.972Z,15.02
2023-03-13T22:51:12.607Z,14.60
2023-03-13T22:53:43.100Z,14.57
2023-03-13T22:56:11.193Z,18.77
2023-03-13T22:58:38.911Z,17.60
2023-03-13T23:01:07.338Z,13.40
2023-03-13T23:03:34.311Z,13.30
2023-03-13T23:06:00.838Z,16.77
2023-03-13T23:08:27.422Z,9.85
2023-03-13T23:10:53.959Z,16.58
2023-03-13T23:13:20.916Z,16.85
2023-03-13T23:15:55.670Z,14.30
2023-03-13T23:18:24.149Z,15.82
2023-03-13T23:20:51.016Z,13.35
2023-03-13T23:23:17.767Z,16.15
2023-03-13T23:25:44.444Z,14.43
2023-03-13T23:28:11.091Z,14.80
2023-03-13T23:30:37.912Z,14.60
2023-03-13T23:33:04.518Z,14.27
2023-03-13T23:35:44.039Z,16.00
2023-03-13T23:38:12.229Z,17.30
2023-03-13T23:40:39.212Z,14.85
2023-03-13T23:43:05.753Z,15.43
2023-03-13T23:45:36.528Z,16.63
2023-03-13T23:48:03.165Z,14.02
2023-03-13T23:50:29.911Z,14.73
2023-03-13T23:52:56.448Z,18.95
2023-03-13T23:55:28.668Z,20.63
2023-03-13T23:57:55.175Z,17.60
